createdAt,value
2019-06-01T00:00:23.424Z,79.60
2019-06-01T00:02:56.407Z,80.00
2019-06-01T00:05:22.923Z,79.30
2019-06-01T00:07:51.901Z,79.70
2019-06-01T00:10:21.035Z,80.40
2019-06-01T00:12:50.111Z,80.60
2019-06-01T00:15:19.471Z,81.00
2019-06-01T00:17:48.403Z,80.70
2019-06-01T00:20:17.465Z,80.90
2019-06-01T00:22:47.502Z,80.80
2019-06-01T00:25:16.572Z,81.60
2019-06-01T00:27:46.676Z,81.30
2019-06-01T00:30:26.724Z,81.40
2019-06-01T00:32:47.284Z,81.10
2019-06-01T00:35:16.621Z,81.40
2019-06-01T00:37:47.584Z,81.90
2019-06-01T00:40:16.258Z,81.20
2019-06-01T00:42:46.076Z,80.70
2019-06-01T00:45:15.292Z,81.70
2019-06-01T00:47:44.758Z,81.30
2019-06-01T00:50:13.788Z,83.60
2019-06-01T00:52:42.984Z,82.20
2019-06-01T00:55:12.153Z,81.90
2019-06-01T00:57:41.081Z,82.30
2019-06-01T01:00:11.196Z,81.90
2019-06-01T01:02:40.302Z,82.20
2019-06-01T01:05:14.347Z,81.70
2019-06-01T01:07:46.462Z,81.80
2019-06-01T01:10:16.440Z,82.40
2019-06-01T01:13:03.232Z,82.40
2019-06-01T01:15:32.196Z,81.90
2019-06-01T01:18:01.121Z,83.80
2019-06-01T01:20:30.088Z,82.70
2019-06-01T01:22:59.035Z,82.70
2019-06-01T01:25:28.072Z,82.00
2019-06-01T01:27:57.134Z,82.60
2019-06-01T01:30:26.266Z,82.50
2019-06-01T01:32:55.790Z,82.80
2019-06-01T01:35:25.178Z,82.50
2019-06-01T01:37:58.157Z,82.40
2019-06-01T01:40:27.567Z,82.50
2019-06-01T01:42:56.590Z,82.80
2019-06-01T01:45:26.039Z,83.40
2019-06-01T01:47:55.137Z,83.10
2019-06-01T01:50:26.416Z,83.10
2019-06-01T01:52:56.835Z,83.30
2019-06-01T01:55:25.981Z,83.90
2019-06-01T01:57:55.396Z,83.50
2019-06-01T02:00:37.621Z,83.00
2019-06-01T02:03:06.605Z,84.30
2019-06-01T02:05:35.559Z,85.00
2019-06-01T02:08:04.969Z,84.70
2019-06-01T02:10:33.933Z,84.10
2019-06-01T02:13:02.861Z,84.10
2019-06-01T02:15:31.770Z,83.90
2019-06-01T02:18:00.795Z,83.80
2019-06-01T02:20:29.672Z,85.20
2019-06-01T02:22:58.912Z,85.10
2019-06-01T02:25:28.234Z,86.00
2019-06-01T02:27:57.425Z,85.50
2019-06-01T02:30:26.440Z,85.00
2019-06-01T02:32:56.297Z,84.80
2019-06-01T02:35:25.721Z,83.90
2019-06-01T02:37:56.308Z,84.00
2019-06-01T02:40:25.817Z,85.00
2019-06-01T02:42:55.069Z,85.40
2019-06-01T02:45:24.661Z,86.10
2019-06-01T02:47:55.250Z,85.80
2019-06-01T02:50:24.372Z,85.20
2019-06-01T02:52:53.372Z,85.10
2019-06-01T02:55:22.408Z,86.00
2019-06-01T02:57:51.547Z,85.90
2019-06-01T03:00:42.527Z,86.30
2019-06-01T03:03:11.486Z,87.40
2019-06-01T03:05:40.895Z,86.90
2019-06-01T03:08:10.329Z,86.80
2019-06-01T03:10:40.108Z,86.10
2019-06-01T03:13:11.004Z,86.10
2019-06-01T03:15:42.695Z,86.10
2019-06-01T03:18:13.845Z,86.30
2019-06-01T03:20:45.958Z,85.90
2019-06-01T03:23:17.587Z,87.50
2019-06-01T03:25:48.895Z,86.10
2019-06-01T03:28:20.765Z,86.10
2019-06-01T03:30:49.605Z,86.50
2019-06-01T03:33:18.587Z,86.70
2019-06-01T03:35:47.431Z,86.30
2019-06-01T03:38:16.256Z,86.00
2019-06-01T03:40:45.354Z,86.60
2019-06-01T03:43:14.318Z,86.90
2019-06-01T03:45:43.152Z,87.40
2019-06-01T03:48:12.993Z,87.90
2019-06-01T03:50:42.233Z,87.00
2019-06-01T03:53:12.197Z,86.90
2019-06-01T03:55:41.316Z,87.40
2019-06-01T03:58:11.165Z,87.50
2019-06-01T04:00:40.091Z,87.80
2019-06-01T04:03:09.231Z,88.80
2019-06-01T04:05:38.169Z,87.50
2019-06-01T04:08:07.553Z,87.40
2019-06-01T04:10:36.529Z,87.30
2019-06-01T04:13:05.654Z,87.60
2019-06-01T04:15:34.542Z,88.30
2019-06-01T04:18:03.903Z,88.70
2019-06-01T04:20:32.824Z,87.90
2019-06-01T04:23:02.015Z,87.80
2019-06-01T04:25:32.512Z,87.70
2019-06-01T04:28:02.150Z,86.40
2019-06-01T04:30:31.485Z,86.50
2019-06-01T04:33:00.460Z,86.50
2019-06-01T04:35:29.215Z,85.90
2019-06-01T04:37:57.959Z,86.60
2019-06-01T04:40:26.847Z,86.20
2019-06-01T04:42:55.645Z,85.60
2019-06-01T04:45:24.521Z,85.60
2019-06-01T04:47:53.272Z,85.70
2019-06-01T04:50:22.088Z,85.90
2019-06-01T04:52:50.866Z,85.40
2019-06-01T04:55:19.826Z,84.90
2019-06-01T04:57:48.723Z,84.70
2019-06-01T05:00:27.913Z,84.80
2019-06-01T05:02:48.470Z,85.60
2019-06-01T05:05:17.551Z,84.90
2019-06-01T05:07:46.321Z,85.10
2019-06-01T05:10:16.097Z,84.80
2019-06-01T05:12:45.077Z,85.30
2019-06-01T05:15:16.066Z,85.20
2019-06-01T05:17:45.216Z,85.00
2019-06-01T05:20:15.013Z,84.90
2019-06-01T05:22:43.767Z,84.50
2019-06-01T05:25:13.649Z,84.60
2019-06-01T05:27:43.501Z,84.20
2019-06-01T05:30:13.729Z,84.10
2019-06-01T05:32:42.866Z,84.30
2019-06-01T05:35:11.854Z,84.40
2019-06-01T05:37:40.602Z,84.70
2019-06-01T05:40:10.475Z,84.20
2019-06-01T05:42:39.795Z,84.00
2019-06-01T05:45:09.451Z,83.50
2019-06-01T05:47:38.304Z,83.40
2019-06-01T05:50:07.620Z,83.60
2019-06-01T05:52:36.420Z,83.60
2019-06-01T05:55:05.594Z,84.10
2019-06-01T05:57:34.407Z,83.40
2019-06-01T06:00:03.346Z,82.90
2019-06-01T06:02:32.087Z,83.20
2019-06-01T06:05:00.961Z,82.60
2019-06-01T06:07:35.165Z,82.30
2019-06-01T06:10:04.448Z,82.80
2019-06-01T06:12:33.409Z,84.00
2019-06-01T06:15:02.313Z,83.00
2019-06-01T06:17:31.305Z,82.90
2019-06-01T06:20:00.367Z,83.10
2019-06-01T06:22:29.464Z,82.80
2019-06-01T06:24:58.483Z,83.10
2019-06-01T06:27:27.477Z,82.30
2019-06-01T06:29:56.453Z,82.00
2019-06-01T06:32:25.549Z,82.00
2019-06-01T06:34:54.464Z,81.90
2019-06-01T06:37:23.898Z,82.40
2019-06-01T06:39:53.014Z,81.20
2019-06-01T06:42:22.361Z,82.50
2019-06-01T06:44:53.109Z,81.30
2019-06-01T06:47:23.007Z,81.20
2019-06-01T06:49:52.088Z,81.00
2019-06-01T06:52:21.564Z,81.20
2019-06-01T06:54:50.879Z,81.30
2019-06-01T06:57:20.164Z,80.30
2019-06-01T06:59:49.439Z,80.00
2019-06-01T07:02:29.779Z,79.30
2019-06-01T07:04:57.158Z,79.90
2019-06-01T07:07:26.124Z,80.10
2019-06-01T07:09:54.963Z,79.20
2019-06-01T07:12:23.825Z,80.30
2019-06-01T07:14:52.652Z,78.20
2019-06-01T07:17:21.951Z,78.70
2019-06-01T07:19:51.004Z,78.20
2019-06-01T07:22:19.980Z,77.60
2019-06-01T07:24:48.974Z,77.90
2019-06-01T07:27:18.131Z,77.80
2019-06-01T07:29:47.097Z,77.20
2019-06-01T07:32:16.149Z,76.90
2019-06-01T07:34:45.237Z,77.40
2019-06-01T07:37:14.558Z,77.30
2019-06-01T07:39:43.501Z,76.80
2019-06-01T07:42:12.313Z,76.80
2019-06-01T07:44:41.229Z,77.10
2019-06-01T07:47:10.134Z,77.20
2019-06-01T07:49:38.929Z,77.40
2019-06-01T07:52:12.575Z,76.30
2019-06-01T07:54:38.448Z,77.30
2019-06-01T07:57:07.207Z,77.10
2019-06-01T07:59:35.976Z,75.00
2019-06-01T08:02:04.911Z,75.10
2019-06-01T08:04:50.736Z,75.20
2019-06-01T08:07:04.504Z,74.90
2019-06-01T08:09:33.348Z,74.20
2019-06-01T08:12:02.304Z,75.10
2019-06-01T08:14:31.261Z,75.30
2019-06-01T08:17:00.228Z,74.70
2019-06-01T08:19:30.109Z,73.30
2019-06-01T08:21:58.969Z,72.30
2019-06-01T08:24:28.300Z,72.00
2019-06-01T08:26:58.017Z,73.00
2019-06-01T08:29:26.837Z,71.70
2019-06-01T08:31:56.034Z,71.30
2019-06-01T08:34:24.899Z,70.80
2019-06-01T08:36:53.717Z,71.70
2019-06-01T08:39:23.481Z,71.00
2019-06-01T08:41:52.580Z,70.40
2019-06-01T08:44:21.493Z,69.70
2019-06-01T08:46:50.317Z,70.40
2019-06-01T08:49:19.340Z,68.30
2019-06-01T08:51:51.103Z,68.30
2019-06-01T08:54:20.068Z,68.20
2019-06-01T08:56:48.984Z,68.40
2019-06-01T08:59:18.104Z,68.60
2019-06-01T09:01:46.951Z,68.90
2019-06-01T09:04:15.751Z,65.80
2019-06-01T09:06:44.712Z,67.30
2019-06-01T09:09:13.641Z,66.60
2019-06-01T09:11:42.684Z,67.00
2019-06-01T09:14:11.549Z,66.80
2019-06-01T09:16:40.368Z,64.60
2019-06-01T09:19:11.436Z,65.10
2019-06-01T09:21:39.860Z,64.50
2019-06-01T09:24:09.799Z,63.30
2019-06-01T09:26:38.733Z,64.00
2019-06-01T09:29:07.654Z,63.10
2019-06-01T09:31:36.729Z,62.50
2019-06-01T09:34:05.812Z,61.80
2019-06-01T09:36:34.805Z,63.10
2019-06-01T09:39:05.200Z,62.80
2019-06-01T09:41:34.556Z,64.60
2019-06-01T09:44:03.913Z,61.90
2019-06-01T09:46:34.048Z,62.00
2019-06-01T09:49:03.637Z,59.20
2019-06-01T09:51:33.445Z,58.30
2019-06-01T09:54:02.509Z,59.00
2019-06-01T09:56:33.495Z,59.20
2019-06-01T09:59:02.211Z,57.50
2019-06-01T10:01:32.396Z,58.00
2019-06-01T10:04:01.423Z,58.30
2019-06-01T10:06:30.436Z,57.90
2019-06-01T10:08:59.438Z,58.00
2019-06-01T10:11:28.317Z,57.50
2019-06-01T10:13:57.149Z,58.00
2019-06-01T10:16:26.087Z,57.30
2019-06-01T10:18:54.949Z,56.30
2019-06-01T10:21:23.916Z,56.20
2019-06-01T10:23:52.850Z,56.70
2019-06-01T10:26:21.708Z,56.20
2019-06-01T10:28:50.581Z,55.70
2019-06-01T10:31:19.465Z,55.60
2019-06-01T10:33:51.407Z,55.90
2019-06-01T10:36:21.290Z,56.40
2019-06-01T10:38:49.692Z,54.80
2019-06-01T10:41:19.023Z,54.20
2019-06-01T10:43:48.016Z,54.80
2019-06-01T10:46:18.087Z,54.80
2019-06-01T10:48:46.983Z,54.80
2019-06-01T10:51:16.251Z,53.40
2019-06-01T10:53:45.774Z,54.30
2019-06-01T10:56:14.743Z,54.00
2019-06-01T10:58:59.730Z,53.70
2019-06-01T11:01:14.457Z,51.80
2019-06-01T11:03:43.670Z,52.40
2019-06-01T11:06:12.582Z,52.70
2019-06-01T11:08:43.149Z,51.60
2019-06-01T11:11:12.455Z,53.40
2019-06-01T11:13:41.482Z,51.70
2019-06-01T11:16:10.510Z,52.30
2019-06-01T11:18:39.685Z,52.90
2019-06-01T11:21:08.796Z,51.90
2019-06-01T11:23:37.870Z,51.40
2019-06-01T11:26:06.963Z,54.70
2019-06-01T11:28:36.182Z,50.20
2019-06-01T11:31:05.904Z,49.90
2019-06-01T11:33:35.964Z,49.50
2019-06-01T11:36:05.156Z,49.90
2019-06-01T11:38:34.671Z,47.70
2019-06-01T11:41:03.816Z,48.30
2019-06-01T11:43:32.784Z,49.50
2019-06-01T11:46:02.146Z,48.60
2019-06-01T11:48:31.182Z,49.30
2019-06-01T11:51:00.297Z,48.30
2019-06-01T11:53:29.266Z,46.80
2019-06-01T11:55:58.307Z,47.70
2019-06-01T11:58:27.322Z,48.80
2019-06-01T12:00:56.361Z,49.60
2019-06-01T12:03:25.304Z,47.90
2019-06-01T12:05:54.499Z,46.70
2019-06-01T12:08:23.539Z,48.50
2019-06-01T12:10:52.768Z,46.80
2019-06-01T12:13:21.990Z,46.60
2019-06-01T12:15:50.890Z,46.20
2019-06-01T12:18:20.314Z,49.00
2019-06-01T12:20:49.306Z,47.70
2019-06-01T12:23:18.470Z,47.50
2019-06-01T12:25:48.463Z,47.30
2019-06-01T12:28:17.916Z,47.10
2019-06-01T12:30:49.796Z,48.70
2019-06-01T12:33:19.063Z,47.90
2019-06-01T12:35:50.456Z,50.40
2019-06-01T12:38:19.733Z,50.40
2019-06-01T12:40:48.933Z,51.50
2019-06-01T12:43:18.157Z,51.70
2019-06-01T12:46:04.856Z,49.70
2019-06-01T12:48:26.564Z,49.30
2019-06-01T12:50:55.998Z,50.40
2019-06-01T12:53:25.304Z,50.30
2019-06-01T12:55:54.207Z,52.00
2019-06-01T12:58:23.699Z,52.10
2019-06-01T13:00:52.992Z,51.60
2019-06-01T13:03:22.155Z,49.90
2019-06-01T13:05:51.930Z,50.90
2019-06-01T13:08:21.360Z,50.20
2019-06-01T13:10:50.239Z,49.20
2019-06-01T13:13:19.365Z,48.20
2019-06-01T13:15:49.354Z,47.60
2019-06-01T13:18:18.560Z,48.30
2019-06-01T13:20:47.712Z,48.20
2019-06-01T13:23:16.850Z,47.80
2019-06-01T13:25:45.938Z,46.80
2019-06-01T13:28:15.086Z,47.90
2019-06-01T13:30:51.131Z,46.30
2019-06-01T13:33:21.053Z,46.60
2019-06-01T13:35:53.137Z,46.10
2019-06-01T13:38:24.578Z,47.70
2019-06-01T13:40:53.550Z,46.30
2019-06-01T13:43:25.521Z,48.50
2019-06-01T13:45:57.945Z,47.50
2019-06-01T13:48:27.167Z,47.30
2019-06-01T13:50:56.204Z,46.20
2019-06-01T13:53:25.345Z,47.20
2019-06-01T13:55:54.882Z,48.40
2019-06-01T13:58:25.314Z,48.00
2019-06-01T14:00:56.631Z,46.70
2019-06-01T14:03:25.796Z,49.10
2019-06-01T14:05:55.119Z,48.20
2019-06-01T14:08:29.074Z,46.20
2019-06-01T14:10:55.569Z,47.30
2019-06-01T14:13:24.991Z,48.10
2019-06-01T14:15:54.108Z,48.90
2019-06-01T14:18:23.466Z,49.00
2019-06-01T14:20:52.289Z,48.20
2019-06-01T14:23:21.174Z,50.00
2019-06-01T14:25:50.223Z,47.70
2019-06-01T14:28:19.124Z,50.20
2019-06-01T14:30:48.463Z,49.80
2019-06-01T14:33:17.672Z,49.70
2019-06-01T14:35:46.588Z,48.40
2019-06-01T14:38:19.979Z,48.30
2019-06-01T14:40:52.355Z,47.20
2019-06-01T14:43:25.686Z,47.70
2019-06-01T14:45:58.158Z,48.00
2019-06-01T14:48:29.754Z,47.90
2019-06-01T14:51:01.319Z,48.20
2019-06-01T14:53:34.619Z,49.40
2019-06-01T14:56:08.645Z,48.10
2019-06-01T14:58:38.301Z,48.20
2019-06-01T15:01:10.073Z,48.80
2019-06-01T15:03:43.755Z,49.40
2019-06-01T15:06:22.171Z,49.00
2019-06-01T15:09:15.635Z,49.80
2019-06-01T15:11:35.177Z,48.80
2019-06-01T15:14:04.951Z,48.60
2019-06-01T15:16:38.713Z,48.40
2019-06-01T15:19:07.919Z,48.60
2019-06-01T15:21:44.219Z,48.80
2019-06-01T15:24:13.718Z,47.30
2019-06-01T15:26:46.608Z,49.10
2019-06-01T15:29:16.107Z,47.50
2019-06-01T15:31:45.562Z,48.70
2019-06-01T15:34:15.819Z,47.60
2019-06-01T15:36:45.064Z,47.90
2019-06-01T15:39:24.570Z,47.20
2019-06-01T15:42:14.419Z,46.10
2019-06-01T15:44:43.994Z,47.00
2019-06-01T15:47:15.615Z,47.70
2019-06-01T15:49:44.635Z,47.20
2019-06-01T15:52:15.564Z,46.60
2019-06-01T15:54:44.976Z,48.60
2019-06-01T15:57:14.133Z,48.70
2019-06-01T15:59:52.403Z,47.30
2019-06-01T16:02:21.401Z,46.90
2019-06-01T16:04:53.058Z,47.00
2019-06-01T16:07:27.843Z,48.90
2019-06-01T16:09:55.413Z,47.90
2019-06-01T16:12:24.824Z,48.10
2019-06-01T16:14:54.017Z,48.30
2019-06-01T16:17:23.332Z,49.50
2019-06-01T16:19:53.817Z,48.90
2019-06-01T16:22:22.777Z,49.40
2019-06-01T16:24:51.801Z,49.60
2019-06-01T16:27:21.179Z,50.00
2019-06-01T16:29:50.117Z,48.40
2019-06-01T16:32:19.151Z,49.40
2019-06-01T16:34:47.977Z,48.40
2019-06-01T16:37:19.102Z,46.60
2019-06-01T16:39:58.848Z,48.60
2019-06-01T16:42:19.342Z,47.90
2019-06-01T16:44:48.478Z,49.00
2019-06-01T16:47:17.999Z,49.00
2019-06-01T16:49:47.054Z,48.40
2019-06-01T16:52:15.965Z,47.70
2019-06-01T16:54:45.028Z,48.40
2019-06-01T16:57:14.298Z,48.10
2019-06-01T16:59:43.465Z,46.70
2019-06-01T17:02:12.315Z,47.90
2019-06-01T17:04:41.166Z,48.30
2019-06-01T17:07:10.041Z,49.00
2019-06-01T17:09:39.133Z,48.80
2019-06-01T17:12:08.055Z,48.60
2019-06-01T17:14:37.032Z,49.20
2019-06-01T17:17:07.479Z,50.40
2019-06-01T17:19:38.429Z,49.80
2019-06-01T17:22:07.850Z,49.20
2019-06-01T17:24:47.375Z,50.00
2019-06-01T17:27:08.183Z,49.70
2019-06-01T17:29:37.430Z,50.50
2019-06-01T17:32:22.698Z,51.40
2019-06-01T17:34:37.536Z,52.20
2019-06-01T17:37:06.854Z,50.80
2019-06-01T17:39:36.297Z,51.90
2019-06-01T17:42:06.454Z,51.80
2019-06-01T17:44:35.833Z,52.50
2019-06-01T17:47:06.179Z,52.70
2019-06-01T17:49:35.443Z,53.20
2019-06-01T17:52:07.671Z,54.70
2019-06-01T17:54:37.991Z,54.60
2019-06-01T17:57:07.335Z,53.90
2019-06-01T17:59:36.417Z,54.20
2019-06-01T18:02:05.830Z,55.00
2019-06-01T18:04:35.399Z,55.60
2019-06-01T18:07:08.013Z,56.10
2019-06-01T18:09:38.429Z,56.00
2019-06-01T18:12:08.191Z,56.40
2019-06-01T18:14:37.615Z,56.30
2019-06-01T18:17:10.343Z,56.90
2019-06-01T18:19:43.250Z,57.40
2019-06-01T18:22:37.285Z,58.10
2019-06-01T18:25:48.439Z,57.80
2019-06-01T18:28:52.209Z,57.40
2019-06-01T18:31:35.432Z,57.80
2019-06-01T18:34:07.789Z,58.10
2019-06-01T18:36:37.173Z,57.30
2019-06-01T18:39:08.036Z,57.50
2019-06-01T18:41:37.371Z,57.60
2019-06-01T18:44:07.708Z,58.60
2019-06-01T18:46:38.203Z,58.10
2019-06-01T18:49:07.996Z,58.40
2019-06-01T18:51:37.857Z,58.80
2019-06-01T18:54:08.859Z,58.90
2019-06-01T18:56:38.121Z,59.20
2019-06-01T18:59:08.538Z,58.90
2019-06-01T19:01:38.377Z,59.00
2019-06-01T19:04:07.702Z,59.10
2019-06-01T19:06:36.834Z,59.80
2019-06-01T19:09:09.389Z,59.80
2019-06-01T19:11:39.035Z,59.70
2019-06-01T19:14:09.844Z,60.00
2019-06-01T19:16:39.161Z,60.50
2019-06-01T19:19:08.543Z,61.30
2019-06-01T19:21:38.050Z,60.80
2019-06-01T19:24:10.528Z,61.30
2019-06-01T19:26:41.411Z,61.80
2019-06-01T19:29:12.977Z,61.40
2019-06-01T19:31:44.188Z,62.00
2019-06-01T19:34:13.471Z,61.90
2019-06-01T19:36:45.357Z,62.00
2019-06-01T19:39:17.555Z,62.70
2019-06-01T19:41:47.062Z,62.60
2019-06-01T19:44:17.745Z,62.70
2019-06-01T19:46:49.783Z,63.00
2019-06-01T19:49:19.370Z,63.40
2019-06-01T19:51:51.068Z,63.70
2019-06-01T19:54:20.423Z,63.50
2019-06-01T19:56:52.285Z,63.40
2019-06-01T19:59:22.227Z,63.50
2019-06-01T20:01:59.156Z,63.40
2019-06-01T20:04:39.107Z,63.60
2019-06-01T20:07:12.991Z,64.30
2019-06-01T20:09:42.860Z,64.20
2019-06-01T20:12:16.641Z,63.60
2019-06-01T20:14:45.787Z,64.00
2019-06-01T20:20:04.017Z,64.10
2019-06-01T20:22:35.946Z,64.40
2019-06-01T20:25:11.263Z,65.00
2019-06-01T20:27:41.027Z,64.60
2019-06-01T20:30:13.687Z,64.80
2019-06-01T20:32:46.159Z,64.90
2019-06-01T20:35:20.116Z,65.40
2019-06-01T20:37:50.808Z,65.40
2019-06-01T20:40:20.411Z,66.00
2019-06-01T20:42:50.045Z,65.70
2019-06-01T20:45:26.096Z,65.60
2019-06-01T20:47:58.110Z,65.90
2019-06-01T20:50:28.715Z,65.80
2019-06-01T20:52:59.300Z,65.50
2019-06-01T20:55:30.810Z,66.00
2019-06-01T20:58:00.201Z,65.80
2019-06-01T21:00:31.760Z,66.30
2019-06-01T21:03:00.382Z,66.30
2019-06-01T21:05:30.780Z,66.70
2019-06-01T21:08:00.234Z,68.20
2019-06-01T21:10:29.696Z,68.20
2019-06-01T21:12:59.177Z,68.30
2019-06-01T21:15:28.610Z,67.60
2019-06-01T21:17:57.878Z,68.70
2019-06-01T21:20:29.999Z,68.90
2019-06-01T21:22:58.196Z,69.10
2019-06-01T21:25:27.899Z,69.10
2019-06-01T21:27:57.324Z,70.40
2019-06-01T21:30:26.625Z,69.40
2019-06-01T21:32:55.870Z,70.20
2019-06-01T21:35:25.568Z,70.00
2019-06-01T21:37:55.124Z,69.80
2019-06-01T21:40:25.736Z,70.60
2019-06-01T21:43:03.188Z,70.40
2019-06-01T21:45:26.348Z,70.90
2019-06-01T21:47:55.531Z,70.80
2019-06-01T21:50:25.974Z,71.90
2019-06-01T21:52:55.511Z,71.50
2019-06-01T21:55:26.290Z,72.10
2019-06-01T21:57:55.642Z,72.70
2019-06-01T22:00:33.892Z,72.80
2019-06-01T22:03:03.359Z,72.90
2019-06-01T22:05:33.431Z,72.70
2019-06-01T22:08:02.553Z,74.00
2019-06-01T22:10:31.727Z,73.50
2019-06-01T22:13:17.214Z,74.00
2019-06-01T22:15:31.814Z,74.10
2019-06-01T22:18:00.944Z,74.80
2019-06-01T22:20:30.261Z,74.40
2019-06-01T22:22:59.539Z,74.50
2019-06-01T22:25:28.657Z,74.60
2019-06-01T22:27:57.782Z,74.70
2019-06-01T22:30:27.066Z,74.60
2019-06-01T22:32:56.163Z,75.10
2019-06-01T22:35:26.682Z,74.80
2019-06-01T22:37:56.257Z,75.20
2019-06-01T22:40:25.412Z,75.60
2019-06-01T22:42:54.518Z,75.20
2019-06-01T22:45:24.641Z,75.10
2019-06-01T22:47:53.926Z,75.00
2019-06-01T22:50:23.158Z,75.30
2019-06-01T22:52:52.242Z,75.90
2019-06-01T22:55:22.016Z,75.60
2019-06-01T22:57:51.497Z,75.40
2019-06-01T23:00:21.475Z,75.70
2019-06-01T23:02:50.978Z,75.70
2019-06-01T23:05:20.909Z,75.90
2019-06-01T23:07:50.218Z,76.20
2019-06-01T23:10:23.889Z,76.20
2019-06-01T23:12:50.227Z,76.70
2019-06-01T23:15:19.617Z,76.40
2019-06-01T23:17:48.724Z,76.60
2019-06-01T23:20:17.856Z,76.50
2019-06-01T23:22:46.997Z,76.70
2019-06-01T23:25:16.097Z,76.80
2019-06-01T23:27:45.233Z,76.80
2019-06-01T23:30:15.024Z,76.70
2019-06-01T23:32:44.100Z,77.70
2019-06-01T23:35:15.810Z,76.40
2019-06-01T23:37:45.010Z,77.10
2019-06-01T23:40:14.149Z,77.40
2019-06-01T23:42:43.236Z,77.00
2019-06-01T23:45:12.419Z,77.20
2019-06-01T23:47:41.527Z,77.10
2019-06-01T23:50:10.825Z,77.10
2019-06-01T23:52:41.468Z,77.30
2019-06-01T23:55:10.766Z,77.30
2019-06-01T23:57:39.957Z,77.30
